Time;durP1;ratioP1;P1;durP2;ratioP2;P2;SDS_P1;SDS_P2;PMS_P1;PMS_P2;Temp;Humidity;BMP_temperature;BMP_pressure;BME280_temperature;BME280_humidity;BME280_pressure;Samples;Min_cycle;Max_cycle;Signal;HPM_P1;HPM_P2
2022/07/21 05:44:00;;;;;;;;;;;;;;;28.37;69.94;98509.00;5880875;24;19950;31
2022/07/21 05:46:28;;;;;;;;;;;;;;;28.27;70.25;98514.19;4788812;29;19958;-73
2022/07/21 05:48:55;;;;;;;;;;;;;;;28.23;70.15;98512.84;4778857;30;19960;-73
2022/07/21 05:51:22;;;;;;;;;;;;;;;28.20;69.56;98508.13;4784347;30;19959;-73
2022/07/21 05:53:50;;;;;;;;;;;;;;;28.32;67.76;98509.75;4785260;30;19977;-71
2022/07/21 05:56:17;;;;;;;;;;;;;;;28.41;66.82;98518.22;4789121;30;19949;-71
2022/07/21 05:58:44;;;;;;;;;;;;;;;28.48;67.05;98523.47;4793512;30;19954;-71
2022/07/21 06:01:16;;;;;;;;;;;;;;;28.47;66.01;98524.78;4793772;30;19962;-70
2022/07/21 06:03:52;;;;;;;;;;;;;;;28.57;66.65;98529.03;4793355;30;20526;-71
2022/07/21 06:06:19;;;;;;;;;;;;;;;28.73;67.76;98525.50;4793380;30;20226;-70
2022/07/21 06:08:47;;;;;;;;;;;;;;;28.75;65.08;98516.34;4792963;30;19953;-71
2022/07/21 06:11:18;;;;;;;;;;;;;;;28.77;66.17;98526.03;4791393;30;19962;-71
2022/07/21 06:13:46;;;;;;;;;;;;;;;28.90;65.38;98531.31;4789151;30;20069;-70
2022/07/21 06:16:13;;;;;;;;;;;;;;;29.01;65.27;98532.16;4791474;30;19965;-71
2022/07/21 06:18:41;;;;;;;;;;;;;;;29.38;63.52;98534.91;4786785;30;19957;-71
2022/07/21 06:21:08;;;;;;;;;;;;;;;29.60;60.81;98534.16;4781771;30;19978;-70
2022/07/21 06:23:35;;;;;;;;;;;;;;;29.61;60.28;98532.88;4791735;29;19954;-71
2022/07/21 06:26:03;;;;;;;;;;;;;;;29.76;63.86;98542.84;4790971;30;19956;-70
2022/07/21 06:28:30;;;;;;;;;;;;;;;29.85;59.88;98541.84;4790843;30;19965;-71
2022/07/21 06:30:57;;;;;;;;;;;;;;;29.88;57.43;98532.91;4791140;30;19950;-71
2022/07/21 06:33:25;;;;;;;;;;;;;;;29.90;56.21;98538.19;4791179;30;19974;-71
2022/07/21 06:35:52;;;;;;;;;;;;;;;29.77;58.50;98535.81;4791872;30;19947;-71
2022/07/21 06:38:20;;;;;;;;;;;;;;;29.83;56.90;98532.94;4791345;30;19956;-71
2022/07/21 06:40:47;;;;;;;;;;;;;;;29.86;56.83;98532.66;4792006;30;19951;-68
2022/07/21 06:43:14;;;;;;;;;;;;;;;29.86;58.45;98531.84;4790489;30;20362;-68
2022/07/21 06:45:52;;;;;;;;;;;;;;;29.76;59.57;98530.53;4790204;30;20372;-68
2022/07/21 06:48:21;;;;;;;;;;;;;;;29.77;59.84;98540.78;4791990;30;19953;-68
2022/07/21 06:50:49;;;;;;;;;;;;;;;29.78;60.37;98533.72;4791357;30;19953;-68
2022/07/21 06:53:16;;;;;;;;;;;;;;;29.79;61.29;98533.19;4785991;30;19965;-68
2022/07/21 06:55:44;;;;;;;;;;;;;;;29.89;61.69;98537.38;4774850;30;19971;-68
2022/07/21 06:58:11;;;;;;;;;;;;;;;29.95;60.03;98534.50;4790060;29;20343;-68
2022/07/21 07:00:39;;;;;;;;;;;;;;;30.09;60.44;98529.78;4789219;30;19954;-68
2022/07/21 07:03:06;;;;;;;;;;;;;;;30.08;60.67;98531.88;4791187;30;20029;-68
2022/07/21 07:05:34;;;;;;;;;;;;;;;30.25;59.13;98537.66;4791243;30;19954;-68
2022/07/21 07:08:02;;;;;;;;;;;;;;;30.32;60.47;98534.97;4790245;30;19956;-68
2022/07/21 07:10:29;;;;;;;;;;;;;;;30.37;56.33;98531.34;4791387;30;19955;-68
2022/07/21 07:12:56;;;;;;;;;;;;;;;30.59;56.54;98529.75;4790577;30;19957;-68
2022/07/21 07:15:44;;;;;;;;;;;;;;;30.74;56.52;98536.00;4775250;30;20318;-68
2022/07/21 07:18:11;;;;;;;;;;;;;;;30.91;55.14;98537.53;4789967;30;19949;-68
2022/07/21 07:20:39;;;;;;;;;;;;;;;30.86;52.90;98543.31;4791218;30;19961;-68
2022/07/21 07:23:06;;;;;;;;;;;;;;;31.02;53.22;98549.06;4790906;30;19957;-68
2022/07/21 07:25:33;;;;;;;;;;;;;;;31.01;55.58;98541.69;4791051;30;19955;-68
2022/07/21 07:28:01;;;;;;;;;;;;;;;31.19;53.67;98537.41;4790854;30;19954;-68
2022/07/21 07:30:29;;;;;;;;;;;;;;;31.09;50.47;98541.91;4790504;30;19952;-68
2022/07/21 07:32:56;;;;;;;;;;;;;;;31.24;55.02;98545.28;4790262;30;20239;-68
2022/07/21 07:35:23;;;;;;;;;;;;;;;31.41;55.08;98548.06;4789040;30;20034;-68
2022/07/21 07:37:51;;;;;;;;;;;;;;;31.54;59.16;98551.19;4790992;30;19952;-68
2022/07/21 07:40:19;;;;;;;;;;;;;;;31.39;54.09;98550.72;4790241;30;19954;-68
2022/07/21 07:42:46;;;;;;;;;;;;;;;31.62;52.64;98549.31;4790153;30;19946;-68
2022/07/21 07:45:13;;;;;;;;;;;;;;;31.77;53.99;98549.69;4790615;30;19984;-68
2022/07/21 07:47:41;;;;;;;;;;;;;;;31.63;52.58;98545.06;4788613;30;19961;-68
2022/07/21 07:50:10;;;;;;;;;;;;;;;31.81;50.37;98541.53;4778848;30;19955;-68
2022/07/21 07:52:38;;;;;;;;;;;;;;;31.73;53.65;98549.22;4788182;30;19950;-68
2022/07/21 07:55:07;;;;;;;;;;;;;;;31.51;49.27;98547.25;4790884;30;20274;-68
2022/07/21 07:57:35;;;;;;;;;;;;;;;31.30;52.77;98546.00;4774867;30;19950;-68
2022/07/21 08:00:06;;;;;;;;;;;;;;;31.38;51.95;98540.47;4790830;30;19964;-69
2022/07/21 08:02:42;;;;;;;;;;;;;;;31.45;52.11;98537.06;4788862;30;19952;-69
2022/07/21 08:05:09;;;;;;;;;;;;;;;31.50;54.98;98545.69;4787932;30;19958;-69
2022/07/21 08:07:37;;;;;;;;;;;;;;;31.39;54.38;98542.84;4789745;30;19949;-69
2022/07/21 08:10:05;;;;;;;;;;;;;;;31.55;58.53;98533.28;4788959;30;19947;-69
2022/07/21 08:12:48;;;;;;;;;;;;;;;31.43;56.51;98530.97;4783801;30;19959;-69
2022/07/21 08:15:16;;;;;;;;;;;;;;;31.49;57.00;98537.56;4789235;30;19979;-69
2022/07/21 08:17:43;;;;;;;;;;;;;;;31.48;56.74;98535.97;4789865;30;19952;-69
2022/07/21 08:20:10;;;;;;;;;;;;;;;31.38;66.47;98531.78;4790259;30;19965;-69
2022/07/21 08:22:38;;;;;;;;;;;;;;;31.42;64.61;98538.88;4789853;30;19951;-69
2022/07/21 08:25:05;;;;;;;;;;;;;;;31.26;55.69;98536.84;4789754;30;20281;-69
2022/07/21 08:27:32;;;;;;;;;;;;;;;31.00;58.93;98534.34;4790486;30;19949;-69
2022/07/21 08:30:00;;;;;;;;;;;;;;;31.04;62.68;98534.06;4790254;30;19958;-69
2022/07/21 08:32:28;;;;;;;;;;;;;;;31.06;61.21;98538.00;4789972;30;20345;-69
2022/07/21 08:34:55;;;;;;;;;;;;;;;30.98;59.44;98536.22;4790232;30;20262;-69
2022/07/21 08:37:22;;;;;;;;;;;;;;;30.98;56.73;98539.09;4789302;30;19953;-69
2022/07/21 08:39:50;;;;;;;;;;;;;;;31.04;54.60;98540.63;4779635;30;20251;-69
2022/07/21 08:42:17;;;;;;;;;;;;;;;31.23;58.52;98537.91;4787793;30;19951;-69
2022/07/21 08:44:44;;;;;;;;;;;;;;;31.26;57.17;98539.75;4784381;29;19992;-69
2022/07/21 08:47:11;;;;;;;;;;;;;;;31.46;58.25;98538.63;4784068;30;19952;-69
2022/07/21 08:49:39;;;;;;;;;;;;;;;31.45;55.27;98534.16;4789680;30;19958;-69
2022/07/21 08:52:07;;;;;;;;;;;;;;;31.10;53.88;98538.53;4789462;30;20406;-69
2022/07/21 08:54:34;;;;;;;;;;;;;;;31.32;51.67;98539.72;4781232;30;19979;-69
2022/07/21 08:57:01;;;;;;;;;;;;;;;31.23;49.26;98535.03;4789557;29;19961;-69
2022/07/21 08:59:29;;;;;;;;;;;;;;;31.32;53.25;98536.84;4787956;30;19955;-69
2022/07/21 09:01:56;;;;;;;;;;;;;;;31.39;54.35;98534.16;4789798;30;20344;-69
2022/07/21 09:04:28;;;;;;;;;;;;;;;31.14;53.56;98536.13;4783377;30;20501;-69
2022/07/21 09:06:58;;;;;;;;;;;;;;;31.31;61.11;98541.03;4788491;30;19959;-69
2022/07/21 09:09:26;;;;;;;;;;;;;;;31.39;56.63;98542.84;4788342;30;19949;-69
2022/07/21 09:11:54;;;;;;;;;;;;;;;31.43;55.87;98545.44;4787844;30;19984;-69
2022/07/21 09:14:23;;;;;;;;;;;;;;;31.55;56.04;98541.19;4788744;30;19968;-69
2022/07/21 09:16:54;;;;;;;;;;;;;;;31.51;53.23;98538.59;4786875;30;19957;-69
2022/07/21 09:19:33;;;;;;;;;;;;;;;31.52;61.10;98539.38;4796952;29;19958;-69
2022/07/21 09:22:01;;;;;;;;;;;;;;;31.62;53.78;98540.63;4791694;29;19957;-69
2022/07/21 09:24:32;;;;;;;;;;;;;;;31.51;51.90;98547.25;4789480;29;19961;-69
2022/07/21 09:27:01;;;;;;;;;;;;;;;31.66;51.72;98539.03;4792367;30;20263;-69
2022/07/21 09:29:34;;;;;;;;;;;;;;;31.71;59.46;98541.09;4790942;30;20333;-69
2022/07/21 09:32:12;;;;;;;;;;;;;;;31.66;51.12;98536.13;4791643;30;19956;-69
2022/07/21 09:34:39;;;;;;;;;;;;;;;31.78;50.05;98531.84;4788571;30;19970;-69
2022/07/21 09:37:07;;;;;;;;;;;;;;;31.81;59.89;98533.63;4792515;30;20009;-69
2022/07/21 09:39:43;;;;;;;;;;;;;;;31.84;51.28;98529.66;4791228;30;19951;-69
2022/07/21 09:42:21;;;;;;;;;;;;;;;31.97;51.21;98534.84;4790786;30;19952;-69
2022/07/21 09:44:51;;;;;;;;;;;;;;;32.10;57.82;98528.44;4789754;30;19976;-70
2022/07/21 09:47:19;;;;;;;;;;;;;;;31.96;55.29;98520.91;4792498;30;20251;-69
2022/07/21 09:49:46;;;;;;;;;;;;;;;31.76;55.84;98527.91;4792536;30;20368;-69
2022/07/21 09:52:35;;;;;;;;;;;;;;;32.01;50.33;98531.69;4793024;30;19953;-70
2022/07/21 09:55:04;;;;;;;;;;;;;;;31.82;56.76;98520.75;4792992;30;19975;-70
2022/07/21 09:57:32;;;;;;;;;;;;;;;31.87;51.04;98524.13;4792755;30;19961;-70
2022/07/21 10:00:00;;;;;;;;;;;;;;;31.82;50.14;98535.22;4792742;30;19954;-69
2022/07/21 10:02:33;;;;;;;;;;;;;;;31.90;50.20;98518.06;4792311;30;20262;-69
2022/07/21 10:05:06;;;;;;;;;;;;;;;31.68;53.33;98521.13;4790015;29;19954;-69
2022/07/21 10:07:38;;;;;;;;;;;;;;;31.74;51.25;98519.75;4788252;30;20513;-70
2022/07/21 10:10:05;;;;;;;;;;;;;;;31.75;50.54;98524.22;4790138;30;20390;-69
2022/07/21 10:12:33;;;;;;;;;;;;;;;31.84;52.02;98529.66;4792076;30;19961;-70
2022/07/21 10:15:00;;;;;;;;;;;;;;;31.92;49.72;98526.19;4791849;30;20270;-69
2022/07/21 10:17:27;;;;;;;;;;;;;;;31.96;50.39;98520.91;4791125;30;19953;-69
2022/07/21 10:20:08;;;;;;;;;;;;;;;31.89;48.89;98522.28;4791162;30;19964;-70
2022/07/21 10:22:47;;;;;;;;;;;;;;;31.90;49.59;98517.28;4791517;30;19955;-69
2022/07/21 10:25:16;;;;;;;;;;;;;;;32.07;49.82;98521.63;4774299;30;19948;-69
2022/07/21 10:28:02;;;;;;;;;;;;;;;31.90;48.03;98520.16;4791256;30;20334;-69
2022/07/21 10:30:40;;;;;;;;;;;;;;;31.82;47.03;98522.84;4790925;30;20928;-70
2022/07/21 10:33:08;;;;;;;;;;;;;;;31.83;48.51;98533.09;4792314;29;19950;-70
2022/07/21 10:35:38;;;;;;;;;;;;;;;31.96;47.29;98518.78;4789648;29;20493;-69
2022/07/21 10:38:25;;;;;;;;;;;;;;;32.04;49.96;98530.59;4786595;30;19952;-70
2022/07/21 10:40:52;;;;;;;;;;;;;;;32.04;47.20;98519.81;4788543;30;19952;-70
2022/07/21 10:43:24;;;;;;;;;;;;;;;31.96;47.55;98518.03;4789075;30;19962;-70
2022/07/21 10:45:53;;;;;;;;;;;;;;;32.15;47.82;98510.25;4787754;30;19980;-69
2022/07/21 10:48:41;;;;;;;;;;;;;;;32.12;47.35;98529.47;4789611;30;19952;-69
2022/07/21 10:51:10;;;;;;;;;;;;;;;32.16;50.42;98521.28;4787846;30;19952;-70
2022/07/21 10:53:37;;;;;;;;;;;;;;;32.23;44.34;98519.94;4784360;30;19951;-70
2022/07/21 10:56:05;;;;;;;;;;;;;;;32.36;51.23;98520.03;4787654;30;19966;-70
2022/07/21 10:58:34;;;;;;;;;;;;;;;32.32;45.58;98531.16;4805386;29;19958;-70
2022/07/21 11:01:02;;;;;;;;;;;;;;;32.40;46.98;98517.66;4790454;29;20260;-70
2022/07/21 11:03:45;;;;;;;;;;;;;;;32.55;47.85;98520.16;4786918;30;19952;-70
2022/07/21 11:06:14;;;;;;;;;;;;;;;32.71;45.31;98514.19;4791208;30;20418;-70
2022/07/21 11:08:43;;;;;;;;;;;;;;;32.62;46.97;98511.66;4789665;30;19962;-70
2022/07/21 11:11:13;;;;;;;;;;;;;;;32.57;44.92;98515.41;4785808;30;19955;-70
2022/07/21 11:13:59;;;;;;;;;;;;;;;32.51;45.14;98517.56;4789607;30;20021;-70
2022/07/21 11:16:38;;;;;;;;;;;;;;;32.67;45.05;98510.03;4790097;30;20457;-70
2022/07/21 11:19:06;;;;;;;;;;;;;;;32.56;42.75;98505.13;4787907;30;20275;-70
2022/07/21 11:21:33;;;;;;;;;;;;;;;32.60;43.59;98505.59;4790785;30;19958;-70
2022/07/21 11:24:00;;;;;;;;;;;;;;;32.74;46.44;98500.72;4790773;30;19951;-69
2022/07/21 11:26:27;;;;;;;;;;;;;;;32.80;43.14;98507.22;4791140;30;19949;-68
2022/07/21 11:29:05;;;;;;;;;;;;;;;32.76;45.91;98498.84;4790091;30;19955;-69
2022/07/21 11:31:44;;;;;;;;;;;;;;;32.85;45.10;98492.69;4790921;30;20378;-70
2022/07/21 11:34:12;;;;;;;;;;;;;;;32.83;43.21;98497.44;4782084;30;19950;-70
2022/07/21 11:36:39;;;;;;;;;;;;;;;32.63;42.77;98492.94;4787200;30;20269;-70
2022/07/21 11:39:10;;;;;;;;;;;;;;;32.75;47.27;98496.47;4790067;30;20278;-70
2022/07/21 11:41:40;;;;;;;;;;;;;;;32.76;42.97;98490.16;4790777;30;19968;-70
2022/07/21 11:44:08;;;;;;;;;;;;;;;32.90;41.68;98494.72;4788532;29;19955;-70
2022/07/21 11:46:54;;;;;;;;;;;;;;;32.84;42.93;98487.44;4790844;30;19957;-70
2022/07/21 11:49:21;;;;;;;;;;;;;;;32.81;42.28;98476.94;4790283;30;19968;-70
2022/07/21 11:51:55;;;;;;;;;;;;;;;32.82;41.46;98485.06;4788923;30;19961;-70
2022/07/21 11:54:24;;;;;;;;;;;;;;;32.81;41.00;98482.72;4774439;30;20261;-70
2022/07/21 11:56:52;;;;;;;;;;;;;;;32.88;44.81;98480.00;4790587;30;19968;-70
2022/07/21 11:59:19;;;;;;;;;;;;;;;33.03;43.97;98474.56;4790240;30;19952;-70
2022/07/21 12:01:51;;;;;;;;;;;;;;;33.07;41.62;98475.03;4790570;30;19948;-70
2022/07/21 12:04:29;;;;;;;;;;;;;;;32.96;39.31;98483.06;4790105;30;19945;-70
2022/07/21 12:06:56;;;;;;;;;;;;;;;32.97;41.66;98470.13;4789950;30;19950;-70
2022/07/21 12:09:24;;;;;;;;;;;;;;;33.05;43.15;98466.09;4790607;30;19954;-69
2022/07/21 12:11:51;;;;;;;;;;;;;;;32.86;40.09;98462.38;4790151;30;19981;-70
2022/07/21 12:14:19;;;;;;;;;;;;;;;32.91;39.64;98463.63;4790231;30;19955;-70
2022/07/21 12:16:47;;;;;;;;;;;;;;;32.98;40.78;98457.22;4790826;30;20264;-70
2022/07/21 12:19:15;;;;;;;;;;;;;;;32.97;42.40;98459.34;4789949;30;19957;-70
2022/07/21 12:21:44;;;;;;;;;;;;;;;32.84;41.03;98464.25;4790839;30;20310;-70
2022/07/21 12:24:11;;;;;;;;;;;;;;;32.84;39.48;98455.56;4790684;30;20339;-70
2022/07/21 12:26:39;;;;;;;;;;;;;;;32.95;40.67;98458.31;4790026;30;19953;-70
2022/07/21 12:29:07;;;;;;;;;;;;;;;33.06;45.32;98453.16;4789500;29;19959;-70
2022/07/21 12:31:35;;;;;;;;;;;;;;;33.04;41.58;98446.34;4789899;30;19956;-70
2022/07/21 12:34:14;;;;;;;;;;;;;;;33.12;44.58;98450.19;4787268;30;20349;-70
2022/07/21 12:36:51;;;;;;;;;;;;;;;33.17;39.92;98452.25;4789514;30;20232;-70
2022/07/21 12:42:09;;;;;;;;;;;;;;;33.03;40.78;98448.50;4786980;30;19952;-70
2022/07/21 12:44:37;;;;;;;;;;;;;;;32.82;39.88;98453.19;4789713;30;19976;-70
2022/07/21 12:47:18;;;;;;;;;;;;;;;33.09;41.28;98437.59;4789755;30;19954;-70
2022/07/21 12:49:55;;;;;;;;;;;;;;;33.28;41.46;98440.50;4788485;30;19954;-70
2022/07/21 12:52:35;;;;;;;;;;;;;;;33.49;37.65;98432.00;4788566;30;19958;-70
2022/07/21 12:55:02;;;;;;;;;;;;;;;33.54;39.98;98431.94;4783474;30;20162;-70
2022/07/21 12:57:32;;;;;;;;;;;;;;;33.55;42.33;98439.28;4789738;30;19981;-70
2022/07/21 12:59:59;;;;;;;;;;;;;;;33.60;36.56;98426.81;4789220;30;19960;-70
2022/07/21 13:02:29;;;;;;;;;;;;;;;33.41;38.34;98428.16;4789305;30;19958;-70
2022/07/21 13:04:56;;;;;;;;;;;;;;;33.33;37.64;98436.72;4789405;30;19956;-70
2022/07/21 13:07:24;;;;;;;;;;;;;;;33.37;40.42;98430.59;4788986;30;19951;-70
2022/07/21 13:09:51;;;;;;;;;;;;;;;33.42;41.25;98435.53;4789397;30;19950;-70
2022/07/21 13:12:18;;;;;;;;;;;;;;;33.27;39.47;98432.34;4789784;30;19981;-70
2022/07/21 13:14:45;;;;;;;;;;;;;;;33.23;39.16;98426.88;4788225;30;19947;-70
2022/07/21 13:17:13;;;;;;;;;;;;;;;33.37;39.79;98413.22;4787415;30;19977;-70
2022/07/21 13:19:40;;;;;;;;;;;;;;;33.32;40.41;98419.88;4786980;30;20356;-70
2022/07/21 13:22:07;;;;;;;;;;;;;;;33.35;38.96;98418.78;4788922;30;19967;-70
2022/07/21 13:24:34;;;;;;;;;;;;;;;33.33;38.58;98428.00;4783313;30;19990;-70
2022/07/21 13:27:02;;;;;;;;;;;;;;;33.27;39.59;98412.84;4788847;30;20232;-70
2022/07/21 13:29:29;;;;;;;;;;;;;;;33.38;38.96;98406.84;4789353;30;19952;-70
2022/07/21 13:31:56;;;;;;;;;;;;;;;33.33;41.37;98410.63;4788014;30;20342;-70
2022/07/21 13:34:24;;;;;;;;;;;;;;;33.49;41.73;98408.78;4778063;30;19958;-70
2022/07/21 13:36:51;;;;;;;;;;;;;;;33.46;42.07;98407.00;4788856;30;19965;-70
2022/07/21 13:39:19;;;;;;;;;;;;;;;33.58;44.67;98412.09;4788122;30;19961;-70
2022/07/21 13:42:07;;;;;;;;;;;;;;;33.69;44.76;98406.13;4785729;30;19954;-70
2022/07/21 13:44:54;;;;;;;;;;;;;;;33.60;38.85;98408.66;4786396;30;19984;-70
2022/07/21 13:47:21;;;;;;;;;;;;;;;33.61;41.25;98395.72;4787955;30;19957;-70
2022/07/21 13:49:49;;;;;;;;;;;;;;;33.64;40.26;98397.50;4788194;29;19947;-70
2022/07/21 13:52:16;;;;;;;;;;;;;;;33.75;39.21;98397.28;4789317;30;19955;-70
2022/07/21 13:54:44;;;;;;;;;;;;;;;33.84;41.28;98394.00;4781863;30;19962;-70
2022/07/21 13:57:11;;;;;;;;;;;;;;;33.88;42.02;98399.44;4788768;30;19973;-70
2022/07/21 13:59:39;;;;;;;;;;;;;;;33.63;39.20;98390.13;4788602;30;19965;-70
2022/07/21 14:02:06;;;;;;;;;;;;;;;33.63;40.46;98387.22;4787257;30;19947;-70
2022/07/21 14:04:33;;;;;;;;;;;;;;;33.69;38.72;98387.94;4788057;30;19953;-70
2022/07/21 14:07:01;;;;;;;;;;;;;;;33.63;40.47;98385.13;4787706;29;19949;-70
2022/07/21 14:09:28;;;;;;;;;;;;;;;33.70;40.55;98378.66;4790996;30;20395;-70
2022/07/21 14:11:57;;;;;;;;;;;;;;;33.69;41.66;98388.72;4782721;30;19952;-70
2022/07/21 14:14:26;;;;;;;;;;;;;;;33.65;44.38;98375.84;4789670;30;19958;-70
2022/07/21 14:16:54;;;;;;;;;;;;;;;33.63;40.34;98373.50;4791152;30;19971;-70
2022/07/21 14:19:21;;;;;;;;;;;;;;;33.52;39.84;98373.69;4790873;29;19962;-70
2022/07/21 14:21:50;;;;;;;;;;;;;;;33.50;39.95;98372.69;4791316;30;19961;-70
2022/07/21 14:27:03;;;;;;;;;;;;;;;33.57;42.12;98367.03;4790980;30;19958;-70
2022/07/21 14:29:32;;;;;;;;;;;;;;;33.62;40.90;98368.28;4791698;30;20284;-70
2022/07/21 14:31:59;;;;;;;;;;;;;;;33.73;41.53;98356.47;4791330;30;19954;-70
2022/07/21 14:34:26;;;;;;;;;;;;;;;33.67;40.52;98362.34;4791964;30;19955;-70
2022/07/21 14:36:53;;;;;;;;;;;;;;;33.66;41.75;98357.13;4790774;30;20265;-70
2022/07/21 14:39:22;;;;;;;;;;;;;;;33.67;42.75;98364.50;4774414;30;19954;-70
2022/07/21 14:41:50;;;;;;;;;;;;;;;33.59;40.91;98349.88;4791346;29;19963;-70
2022/07/21 14:44:18;;;;;;;;;;;;;;;33.60;42.29;98356.47;4790458;30;19954;-70
2022/07/21 14:46:45;;;;;;;;;;;;;;;33.52;42.03;98346.81;4791442;30;19955;-70
2022/07/21 14:49:12;;;;;;;;;;;;;;;33.50;38.79;98355.28;4791431;30;19953;-70
2022/07/21 14:51:40;;;;;;;;;;;;;;;33.47;40.48;98350.56;4791768;30;19952;-70
2022/07/21 14:54:07;;;;;;;;;;;;;;;33.49;40.89;98345.78;4787363;30;20244;-70
2022/07/21 14:56:35;;;;;;;;;;;;;;;33.45;41.24;98348.25;4789788;30;19969;-70
2022/07/21 14:59:18;;;;;;;;;;;;;;;33.36;41.20;98342.06;4780542;30;20257;-70
2022/07/21 15:01:45;;;;;;;;;;;;;;;33.48;44.37;98337.63;4790482;30;19954;-70
2022/07/21 15:04:12;;;;;;;;;;;;;;;33.51;41.30;98342.31;4790516;30;19965;-70
2022/07/21 15:06:39;;;;;;;;;;;;;;;33.68;42.01;98337.03;4790675;30;19958;-70
2022/07/21 15:09:07;;;;;;;;;;;;;;;33.79;41.58;98338.97;4790827;30;20335;-70
2022/07/21 15:11:34;;;;;;;;;;;;;;;33.60;39.69;98336.91;4791073;30;20342;-70
2022/07/21 15:14:01;;;;;;;;;;;;;;;33.76;40.39;98337.16;4787869;30;19957;-70
2022/07/21 15:16:29;;;;;;;;;;;;;;;33.78;43.92;98338.19;4790623;30;19971;-70
2022/07/21 15:18:56;;;;;;;;;;;;;;;33.72;41.66;98331.72;4790579;29;19951;-70
2022/07/21 15:21:23;;;;;;;;;;;;;;;33.74;39.05;98331.94;4794150;29;19943;-69
2022/07/21 15:23:51;;;;;;;;;;;;;;;33.69;40.98;98329.91;4790832;30;19954;-70
2022/07/21 15:26:19;;;;;;;;;;;;;;;33.72;39.64;98328.81;4788785;30;19956;-70
2022/07/21 15:28:46;;;;;;;;;;;;;;;33.76;40.79;98326.34;4788620;29;19949;-70
2022/07/21 15:31:14;;;;;;;;;;;;;;;33.68;41.18;98326.22;4791122;29;19972;-70
2022/07/21 15:33:41;;;;;;;;;;;;;;;33.59;40.17;98325.88;4789633;30;19957;-70
2022/07/21 15:36:08;;;;;;;;;;;;;;;33.54;40.50;98318.84;4789889;30;19952;-69
2022/07/21 15:38:36;;;;;;;;;;;;;;;33.52;40.48;98323.59;4787327;30;19975;-69
2022/07/21 15:41:03;;;;;;;;;;;;;;;33.48;41.93;98321.03;4775431;30;19957;-70
2022/07/21 15:43:30;;;;;;;;;;;;;;;33.40;41.58;98320.13;4790608;30;20369;-70
2022/07/21 15:45:57;;;;;;;;;;;;;;;33.43;39.84;98319.00;4790172;30;19977;-70
2022/07/21 15:48:25;;;;;;;;;;;;;;;33.37;40.85;98312.53;4789591;29;19958;-70
2022/07/21 15:50:52;;;;;;;;;;;;;;;33.38;42.66;98319.13;4790350;30;19976;-70
2022/07/21 15:53:19;;;;;;;;;;;;;;;33.36;42.63;98324.66;4789514;30;19965;-70
2022/07/21 15:55:47;;;;;;;;;;;;;;;33.30;42.03;98313.19;4788615;30;19968;-70
2022/07/21 15:58:14;;;;;;;;;;;;;;;33.34;42.09;98313.63;4787336;30;20012;-70
2022/07/21 16:00:42;;;;;;;;;;;;;;;33.36;43.87;98308.06;4790278;30;19958;-69
2022/07/21 16:03:09;;;;;;;;;;;;;;;33.24;42.56;98306.69;4789662;30;19957;-70
2022/07/21 16:05:37;;;;;;;;;;;;;;;33.24;42.69;98308.78;4790437;30;19951;-70
2022/07/21 16:08:05;;;;;;;;;;;;;;;33.20;43.43;98300.44;4790748;30;19958;-70
2022/07/21 16:10:32;;;;;;;;;;;;;;;33.19;42.70;98303.88;4790439;30;19951;-70
2022/07/21 16:12:59;;;;;;;;;;;;;;;33.15;42.52;98306.31;4790624;30;19951;-70
2022/07/21 16:15:27;;;;;;;;;;;;;;;33.12;44.26;98299.50;4790020;30;19954;-70
2022/07/21 16:17:54;;;;;;;;;;;;;;;33.14;43.93;98284.47;4790580;30;20623;-70
2022/07/21 16:20:22;;;;;;;;;;;;;;;33.15;42.91;98297.63;4790877;30;19956;-70
2022/07/21 16:22:50;;;;;;;;;;;;;;;33.13;43.27;98298.19;4790361;30;20424;-70
2022/07/21 16:25:19;;;;;;;;;;;;;;;33.05;41.26;98292.25;4790011;30;19949;-70
2022/07/21 16:27:49;;;;;;;;;;;;;;;33.03;42.63;98294.91;4789559;29;20382;-70
2022/07/21 16:30:16;;;;;;;;;;;;;;;33.05;42.17;98292.25;4788987;29;19954;-70
2022/07/21 16:32:44;;;;;;;;;;;;;;;33.01;42.19;98290.97;4787182;30;19958;-70
2022/07/21 16:35:15;;;;;;;;;;;;;;;32.95;41.47;98291.06;4788851;30;19957;-70
2022/07/21 16:37:43;;;;;;;;;;;;;;;32.95;42.54;98285.28;4789583;30;19968;-70
2022/07/21 16:40:11;;;;;;;;;;;;;;;32.91;45.71;98284.81;4789450;30;19952;-70
2022/07/21 16:42:39;;;;;;;;;;;;;;;32.85;46.28;98281.22;4790013;30;19951;-70
2022/07/21 16:45:06;;;;;;;;;;;;;;;32.84;43.74;98284.66;4789630;30;20237;-70
2022/07/21 16:47:33;;;;;;;;;;;;;;;32.83;43.99;98280.97;4789651;29;19953;-70
2022/07/21 16:50:01;;;;;;;;;;;;;;;32.85;44.04;98274.63;4789536;30;19948;-70
2022/07/21 16:52:28;;;;;;;;;;;;;;;32.78;44.33;98275.28;4789019;29;19952;-70
2022/07/21 16:54:55;;;;;;;;;;;;;;;32.78;43.70;98275.28;4786121;29;19954;-70
2022/07/21 16:57:22;;;;;;;;;;;;;;;32.73;43.29;98270.34;4783144;30;19971;-70
2022/07/21 16:59:50;;;;;;;;;;;;;;;32.68;43.96;98277.78;4788821;30;19952;-70
2022/07/21 17:02:17;;;;;;;;;;;;;;;32.66;44.38;98276.78;4781471;30;19957;-70
2022/07/21 17:04:45;;;;;;;;;;;;;;;32.66;43.93;98273.88;4789231;30;19961;-70
2022/07/21 17:07:13;;;;;;;;;;;;;;;32.58;44.47;98275.81;4789434;30;19949;-70
2022/07/21 17:09:40;;;;;;;;;;;;;;;32.54;43.99;98273.25;4789265;30;19963;-70
2022/07/21 17:12:08;;;;;;;;;;;;;;;32.49;45.39;98265.41;4788689;30;19946;-70
2022/07/21 17:14:38;;;;;;;;;;;;;;;32.47;45.97;98270.97;4773192;30;19952;-70
2022/07/21 17:17:06;;;;;;;;;;;;;;;32.44;44.56;98275.75;4789404;30;19956;-70
2022/07/21 17:19:33;;;;;;;;;;;;;;;32.42;45.38;98271.84;4781630;30;19950;-70
2022/07/21 17:22:01;;;;;;;;;;;;;;;32.37;47.47;98269.78;4788854;30;19959;-70
2022/07/21 17:24:28;;;;;;;;;;;;;;;32.32;46.53;98273.53;4788214;30;19981;-70
2022/07/21 17:26:56;;;;;;;;;;;;;;;32.34;45.60;98276.66;4787644;30;19951;-70
2022/07/21 17:29:23;;;;;;;;;;;;;;;32.28;46.65;98279.63;4785667;30;20545;-70
2022/07/21 17:31:50;;;;;;;;;;;;;;;32.23;47.67;98276.84;4786859;30;19958;-70
2022/07/21 17:34:18;;;;;;;;;;;;;;;32.17;47.35;98276.91;4789081;30;20247;-70
2022/07/21 17:36:45;;;;;;;;;;;;;;;32.16;46.84;98275.31;4788104;30;19949;-70
2022/07/21 17:39:12;;;;;;;;;;;;;;;32.14;46.69;98280.88;4787359;30;19966;-70
2022/07/21 17:41:40;;;;;;;;;;;;;;;32.11;49.19;98278.31;4789111;29;19950;-70
2022/07/21 17:44:07;;;;;;;;;;;;;;;32.04;49.46;98276.00;4792544;30;19960;-70
2022/07/21 17:46:34;;;;;;;;;;;;;;;31.98;48.96;98278.19;4793037;30;19960;-70
2022/07/21 17:49:02;;;;;;;;;;;;;;;31.91;49.26;98275.88;4797691;29;19963;-70
2022/07/21 17:51:29;;;;;;;;;;;;;;;31.88;48.13;98288.53;4793281;29;20711;-70
2022/07/21 17:53:56;;;;;;;;;;;;;;;31.86;48.15;98274.63;4792171;29;19956;-70
2022/07/21 17:56:24;;;;;;;;;;;;;;;31.81;48.51;98270.44;4796365;29;20241;-70
2022/07/21 17:58:51;;;;;;;;;;;;;;;31.75;50.57;98271.84;4794558;29;19962;-70
2022/07/21 18:01:22;;;;;;;;;;;;;;;31.71;51.05;98272.16;4794845;29;19957;-70
2022/07/21 18:03:51;;;;;;;;;;;;;;;31.64;52.87;98269.09;4789655;29;20229;-69
2022/07/21 18:06:19;;;;;;;;;;;;;;;31.57;51.33;98270.47;4792618;29;19952;-70
2022/07/21 18:08:47;;;;;;;;;;;;;;;31.54;50.98;98268.69;4790026;30;19947;-69
2022/07/21 18:11:14;;;;;;;;;;;;;;;31.50;50.98;98276.84;4791784;30;19945;-69
2022/07/21 18:13:44;;;;;;;;;;;;;;;31.47;51.85;98271.38;4791967;29;20229;-69
2022/07/21 18:16:12;;;;;;;;;;;;;;;31.45;50.05;98274.78;4792583;30;19950;-70
2022/07/21 18:18:39;;;;;;;;;;;;;;;31.41;50.61;98276.38;4791764;30;20311;-69
2022/07/21 18:21:07;;;;;;;;;;;;;;;31.35;51.70;98272.78;4789061;30;19955;-69
2022/07/21 18:23:34;;;;;;;;;;;;;;;31.31;52.02;98269.38;4790224;29;19952;-69
2022/07/21 18:26:01;;;;;;;;;;;;;;;31.28;52.24;98276.28;4791036;30;19957;-69
2022/07/21 18:28:29;;;;;;;;;;;;;;;31.23;51.81;98274.97;4791928;30;19950;-70
2022/07/21 18:30:56;;;;;;;;;;;;;;;31.17;51.58;98272.16;4791391;30;19952;-70
2022/07/21 18:33:23;;;;;;;;;;;;;;;31.12;51.88;98277.97;4791682;30;19947;-70
2022/07/21 18:35:50;;;;;;;;;;;;;;;31.03;53.59;98281.22;4790708;30;19946;-70
2022/07/21 18:38:18;;;;;;;;;;;;;;;30.96;53.23;98278.91;4792010;30;19970;-70
2022/07/21 18:40:45;;;;;;;;;;;;;;;30.93;52.71;98271.31;4789814;30;19964;-70
2022/07/21 18:43:12;;;;;;;;;;;;;;;30.88;53.12;98275.00;4787143;30;20247;-70
2022/07/21 18:45:41;;;;;;;;;;;;;;;30.85;52.30;98271.06;4790125;30;19982;-70